sensor_id;sensor_type;location;lat;lon;timestamp;P1;durP1;ratioP1;P2;durP2;ratioP2
73296;SDS011;61524;50.938;11.396;2023-05-31T00:02:05;5.57;;;1.75;;
73296;SDS011;61524;50.938;11.396;2023-05-31T00:04:31;6.38;;;2.67;;
73296;SDS011;61524;50.938;11.396;2023-05-31T00:06:57;11.73;;;2.42;;
73296;SDS011;61524;50.938;11.396;2023-05-31T00:09:22;6.93;;;2.53;;
73296;SDS011;61524;50.938;11.396;2023-05-31T00:11:47;6.38;;;2.67;;
73296;SDS011;61524;50.938;11.396;2023-05-31T00:14:13;7.10;;;2.45;;
73296;SDS011;61524;50.938;11.396;2023-05-31T00:16:38;6.03;;;2.63;;
73296;SDS011;61524;50.938;11.396;2023-05-31T00:19:04;7.43;;;2.63;;
73296;SDS011;61524;50.938;11.396;2023-05-31T00:21:29;7.22;;;2.88;;
73296;SDS011;61524;50.938;11.396;2023-05-31T00:23:55;7.93;;;3.00;;
73296;SDS011;61524;50.938;11.396;2023-05-31T00:26:20;11.10;;;2.85;;
73296;SDS011;61524;50.938;11.396;2023-05-31T00:28:47;5.60;;;2.50;;
73296;SDS011;61524;50.938;11.396;2023-05-31T00:31:12;5.60;;;2.60;;
73296;SDS011;61524;50.938;11.396;2023-05-31T00:33:38;12.63;;;2.80;;
73296;SDS011;61524;50.938;11.396;2023-05-31T00:36:03;5.45;;;2.30;;
73296;SDS011;61524;50.938;11.396;2023-05-31T00:38:29;6.95;;;2.40;;
73296;SDS011;61524;50.938;11.396;2023-05-31T00:40:54;6.68;;;2.50;;
73296;SDS011;61524;50.938;11.396;2023-05-31T00:43:20;6.65;;;2.30;;
73296;SDS011;61524;50.938;11.396;2023-05-31T00:45:45;6.85;;;2.35;;
73296;SDS011;61524;50.938;11.396;2023-05-31T00:48:11;6.57;;;2.38;;
73296;SDS011;61524;50.938;11.396;2023-05-31T00:50:36;6.85;;;2.22;;
73296;SDS011;61524;50.938;11.396;2023-05-31T00:53:02;7.30;;;2.60;;
73296;SDS011;61524;50.938;11.396;2023-05-31T00:55:29;4.32;;;2.55;;
73296;SDS011;61524;50.938;11.396;2023-05-31T00:57:57;6.00;;;2.47;;
73296;SDS011;61524;50.938;11.396;2023-05-31T01:00:22;8.20;;;2.20;;
73296;SDS011;61524;50.938;11.396;2023-05-31T01:02:48;5.50;;;2.45;;
73296;SDS011;61524;50.938;11.396;2023-05-31T01:05:16;3.65;;;1.83;;
73296;SDS011;61524;50.938;11.396;2023-05-31T01:07:42;5.28;;;2.13;;
73296;SDS011;61524;50.938;11.396;2023-05-31T01:10:07;6.93;;;2.50;;
73296;SDS011;61524;50.938;11.396;2023-05-31T01:12:37;5.88;;;2.40;;
73296;SDS011;61524;50.938;11.396;2023-05-31T01:15:33;7.25;;;2.30;;
73296;SDS011;61524;50.938;11.396;2023-05-31T01:18:18;5.53;;;2.90;;
73296;SDS011;61524;50.938;11.396;2023-05-31T01:28:59;6.07;;;2.10;;
73296;SDS011;61524;50.938;11.396;2023-05-31T01:31:26;5.38;;;2.17;;
73296;SDS011;61524;50.938;11.396;2023-05-31T01:33:55;5.72;;;2.28;;
73296;SDS011;61524;50.938;11.396;2023-05-31T01:36:21;5.60;;;2.60;;
73296;SDS011;61524;50.938;11.396;2023-05-31T01:38:46;7.25;;;2.42;;
73296;SDS011;61524;50.938;11.396;2023-05-31T01:41:12;4.43;;;2.08;;
73296;SDS011;61524;50.938;11.396;2023-05-31T01:43:41;4.15;;;2.20;;
73296;SDS011;61524;50.938;11.396;2023-05-31T01:46:09;4.63;;;2.53;;
73296;SDS011;61524;50.938;11.396;2023-05-31T01:48:37;8.27;;;2.53;;
73296;SDS011;61524;50.938;11.396;2023-05-31T01:51:06;6.60;;;3.10;;
73296;SDS011;61524;50.938;11.396;2023-05-31T01:53:34;4.38;;;2.28;;
73296;SDS011;61524;50.938;11.396;2023-05-31T01:56:00;7.78;;;2.50;;
73296;SDS011;61524;50.938;11.396;2023-05-31T01:58:27;3.97;;;2.10;;
73296;SDS011;61524;50.938;11.396;2023-05-31T02:00:55;7.78;;;2.45;;
73296;SDS011;61524;50.938;11.396;2023-05-31T02:03:20;8.13;;;3.05;;
73296;SDS011;61524;50.938;11.396;2023-05-31T02:08:24;7.05;;;2.10;;
73296;SDS011;61524;50.938;11.396;2023-05-31T02:10:50;5.50;;;2.13;;
73296;SDS011;61524;50.938;11.396;2023-05-31T02:13:17;6.78;;;2.22;;
73296;SDS011;61524;50.938;11.396;2023-05-31T02:15:43;7.05;;;2.25;;
73296;SDS011;61524;50.938;11.396;2023-05-31T02:18:09;5.55;;;2.05;;
73296;SDS011;61524;50.938;11.396;2023-05-31T02:20:34;5.68;;;2.40;;
73296;SDS011;61524;50.938;11.396;2023-05-31T02:23:00;8.02;;;2.58;;
73296;SDS011;61524;50.938;11.396;2023-05-31T02:25:26;4.95;;;2.10;;
73296;SDS011;61524;50.938;11.396;2023-05-31T02:27:51;5.47;;;2.17;;
73296;SDS011;61524;50.938;11.396;2023-05-31T02:30:17;5.55;;;2.58;;
73296;SDS011;61524;50.938;11.396;2023-05-31T02:32:43;7.93;;;2.92;;
73296;SDS011;61524;50.938;11.396;2023-05-31T02:35:09;5.85;;;2.70;;
73296;SDS011;61524;50.938;11.396;2023-05-31T02:37:36;8.00;;;2.63;;
73296;SDS011;61524;50.938;11.396;2023-05-31T02:40:04;5.30;;;2.45;;
73296;SDS011;61524;50.938;11.396;2023-05-31T02:42:41;4.95;;;2.45;;
73296;SDS011;61524;50.938;11.396;2023-05-31T02:45:07;6.18;;;2.25;;
73296;SDS011;61524;50.938;11.396;2023-05-31T02:47:35;6.88;;;2.75;;
73296;SDS011;61524;50.938;11.396;2023-05-31T02:50:01;6.95;;;2.53;;
73296;SDS011;61524;50.938;11.396;2023-05-31T02:52:27;6.03;;;2.53;;
73296;SDS011;61524;50.938;11.396;2023-05-31T02:54:52;6.95;;;3.00;;
73296;SDS011;61524;50.938;11.396;2023-05-31T02:57:18;8.57;;;2.30;;
73296;SDS011;61524;50.938;11.396;2023-05-31T02:59:44;7.57;;;2.40;;
73296;SDS011;61524;50.938;11.396;2023-05-31T03:02:10;7.30;;;2.63;;
73296;SDS011;61524;50.938;11.396;2023-05-31T03:04:36;4.55;;;2.20;;
73296;SDS011;61524;50.938;11.396;2023-05-31T03:07:02;5.13;;;2.22;;
73296;SDS011;61524;50.938;11.396;2023-05-31T03:09:28;6.55;;;2.72;;
73296;SDS011;61524;50.938;11.396;2023-05-31T03:11:53;5.40;;;2.42;;
73296;SDS011;61524;50.938;11.396;2023-05-31T03:14:19;5.47;;;2.42;;
73296;SDS011;61524;50.938;11.396;2023-05-31T03:16:44;5.53;;;2.20;;
73296;SDS011;61524;50.938;11.396;2023-05-31T03:19:10;5.60;;;2.60;;
73296;SDS011;61524;50.938;11.396;2023-05-31T03:21:37;6.78;;;2.90;;
73296;SDS011;61524;50.938;11.396;2023-05-31T03:24:03;10.32;;;2.55;;
73296;SDS011;61524;50.938;11.396;2023-05-31T03:26:29;5.05;;;2.20;;
73296;SDS011;61524;50.938;11.396;2023-05-31T03:28:54;5.72;;;2.00;;
73296;SDS011;61524;50.938;11.396;2023-05-31T03:31:20;4.90;;;2.22;;
73296;SDS011;61524;50.938;11.396;2023-05-31T03:33:45;6.53;;;2.53;;
73296;SDS011;61524;50.938;11.396;2023-05-31T03:36:10;8.77;;;2.70;;
73296;SDS011;61524;50.938;11.396;2023-05-31T03:38:36;5.57;;;2.22;;
73296;SDS011;61524;50.938;11.396;2023-05-31T03:41:01;8.73;;;2.72;;
73296;SDS011;61524;50.938;11.396;2023-05-31T03:43:27;4.80;;;2.20;;
73296;SDS011;61524;50.938;11.396;2023-05-31T03:45:52;6.57;;;2.33;;
73296;SDS011;61524;50.938;11.396;2023-05-31T03:48:18;4.10;;;2.20;;
73296;SDS011;61524;50.938;11.396;2023-05-31T03:50:43;6.97;;;3.38;;
73296;SDS011;61524;50.938;11.396;2023-05-31T03:53:09;7.60;;;2.35;;
73296;SDS011;61524;50.938;11.396;2023-05-31T03:55:35;4.70;;;2.15;;
73296;SDS011;61524;50.938;11.396;2023-05-31T03:58:01;5.75;;;2.53;;
73296;SDS011;61524;50.938;11.396;2023-05-31T04:00:27;6.70;;;2.33;;
73296;SDS011;61524;50.938;11.396;2023-05-31T04:02:53;9.10;;;2.45;;
73296;SDS011;61524;50.938;11.396;2023-05-31T04:05:19;9.52;;;2.55;;
73296;SDS011;61524;50.938;11.396;2023-05-31T04:07:44;6.90;;;2.22;;
73296;SDS011;61524;50.938;11.396;2023-05-31T04:10:10;6.07;;;2.20;;
73296;SDS011;61524;50.938;11.396;2023-05-31T04:12:35;6.90;;;2.13;;
73296;SDS011;61524;50.938;11.396;2023-05-31T04:15:01;6.18;;;2.08;;
73296;SDS011;61524;50.938;11.396;2023-05-31T04:17:26;5.30;;;2.55;;
73296;SDS011;61524;50.938;11.396;2023-05-31T04:19:52;4.93;;;2.45;;
73296;SDS011;61524;50.938;11.396;2023-05-31T04:22:17;4.53;;;2.60;;
73296;SDS011;61524;50.938;11.396;2023-05-31T04:24:43;5.45;;;2.30;;
73296;SDS011;61524;50.938;11.396;2023-05-31T04:27:08;5.85;;;2.60;;
73296;SDS011;61524;50.938;11.396;2023-05-31T04:29:34;4.55;;;2.05;;
73296;SDS011;61524;50.938;11.396;2023-05-31T04:31:59;5.72;;;2.15;;
73296;SDS011;61524;50.938;11.396;2023-05-31T04:34:25;7.28;;;2.33;;
73296;SDS011;61524;50.938;11.396;2023-05-31T04:36:51;5.28;;;2.55;;
73296;SDS011;61524;50.938;11.396;2023-05-31T04:39:17;6.82;;;2.15;;
73296;SDS011;61524;50.938;11.396;2023-05-31T04:41:45;5.22;;;2.25;;
73296;SDS011;61524;50.938;11.396;2023-05-31T04:44:11;7.47;;;2.40;;
73296;SDS011;61524;50.938;11.396;2023-05-31T04:46:36;5.68;;;2.58;;
73296;SDS011;61524;50.938;11.396;2023-05-31T04:49:05;5.07;;;2.08;;
73296;SDS011;61524;50.938;11.396;2023-05-31T04:51:31;5.45;;;2.10;;
73296;SDS011;61524;50.938;11.396;2023-05-31T04:53:57;7.57;;;2.47;;
73296;SDS011;61524;50.938;11.396;2023-05-31T04:56:24;4.80;;;2.13;;
73296;SDS011;61524;50.938;11.396;2023-05-31T04:58:50;4.35;;;1.90;;
73296;SDS011;61524;50.938;11.396;2023-05-31T05:01:16;4.40;;;1.70;;
73296;SDS011;61524;50.938;11.396;2023-05-31T05:03:42;7.88;;;2.42;;
73296;SDS011;61524;50.938;11.396;2023-05-31T05:06:13;6.65;;;2.33;;
73296;SDS011;61524;50.938;11.396;2023-05-31T05:08:39;6.47;;;2.22;;
73296;SDS011;61524;50.938;11.396;2023-05-31T05:11:05;5.55;;;2.28;;
73296;SDS011;61524;50.938;11.396;2023-05-31T05:13:31;6.32;;;2.45;;
73296;SDS011;61524;50.938;11.396;2023-05-31T05:15:57;5.93;;;2.05;;
73296;SDS011;61524;50.938;11.396;2023-05-31T05:18:22;4.82;;;2.05;;
73296;SDS011;61524;50.938;11.396;2023-05-31T05:20:48;6.78;;;2.28;;
73296;SDS011;61524;50.938;11.396;2023-05-31T05:23:13;7.05;;;2.25;;
73296;SDS011;61524;50.938;11.396;2023-05-31T05:25:39;4.70;;;2.00;;
73296;SDS011;61524;50.938;11.396;2023-05-31T05:28:04;5.75;;;2.60;;
73296;SDS011;61524;50.938;11.396;2023-05-31T05:30:30;5.97;;;2.53;;
73296;SDS011;61524;50.938;11.396;2023-05-31T05:32:55;5.80;;;1.80;;
73296;SDS011;61524;50.938;11.396;2023-05-31T05:35:21;7.47;;;2.05;;
73296;SDS011;61524;50.938;11.396;2023-05-31T05:37:46;5.57;;;2.10;;
73296;SDS011;61524;50.938;11.396;2023-05-31T05:40:12;4.70;;;2.03;;
73296;SDS011;61524;50.938;11.396;2023-05-31T05:42:38;6.28;;;2.30;;
73296;SDS011;61524;50.938;11.396;2023-05-31T05:45:04;5.68;;;2.50;;
73296;SDS011;61524;50.938;11.396;2023-05-31T05:47:32;6.93;;;2.20;;
73296;SDS011;61524;50.938;11.396;2023-05-31T05:49:57;6.15;;;2.38;;
73296;SDS011;61524;50.938;11.396;2023-05-31T05:52:23;5.82;;;2.60;;
73296;SDS011;61524;50.938;11.396;2023-05-31T05:54:48;7.22;;;2.58;;
73296;SDS011;61524;50.938;11.396;2023-05-31T05:57:14;7.60;;;2.83;;
73296;SDS011;61524;50.938;11.396;2023-05-31T05:59:40;6.53;;;2.45;;
73296;SDS011;61524;50.938;11.396;2023-05-31T06:02:06;7.72;;;2.50;;
73296;SDS011;61524;50.938;11.396;2023-05-31T06:04:32;7.63;;;2.50;;
73296;SDS011;61524;50.938;11.396;2023-05-31T06:06:57;6.80;;;2.30;;
73296;SDS011;61524;50.938;11.396;2023-05-31T06:09:23;5.25;;;2.78;;
73296;SDS011;61524;50.938;11.396;2023-05-31T06:11:48;7.38;;;3.20;;
73296;SDS011;61524;50.938;11.396;2023-05-31T06:14:13;6.28;;;2.50;;
73296;SDS011;61524;50.938;11.396;2023-05-31T06:16:39;8.30;;;3.33;;
73296;SDS011;61524;50.938;11.396;2023-05-31T06:19:04;6.72;;;3.00;;
73296;SDS011;61524;50.938;11.396;2023-05-31T06:21:30;5.63;;;2.58;;
73296;SDS011;61524;50.938;11.396;2023-05-31T06:26:22;6.03;;;2.47;;
73296;SDS011;61524;50.938;11.396;2023-05-31T06:28:47;7.47;;;2.50;;
73296;SDS011;61524;50.938;11.396;2023-05-31T06:31:13;6.85;;;2.30;;
73296;SDS011;61524;50.938;11.396;2023-05-31T06:33:38;4.95;;;2.10;;
73296;SDS011;61524;50.938;11.396;2023-05-31T06:36:04;5.72;;;2.17;;
73296;SDS011;61524;50.938;11.396;2023-05-31T06:38:29;7.30;;;2.40;;
73296;SDS011;61524;50.938;11.396;2023-05-31T06:40:55;7.03;;;3.05;;
73296;SDS011;61524;50.938;11.396;2023-05-31T06:43:20;9.52;;;2.50;;
73296;SDS011;61524;50.938;11.396;2023-05-31T06:48:12;8.07;;;2.22;;
73296;SDS011;61524;50.938;11.396;2023-05-31T06:50:38;7.22;;;2.53;;
73296;SDS011;61524;50.938;11.396;2023-05-31T06:53:03;4.97;;;2.20;;
73296;SDS011;61524;50.938;11.396;2023-05-31T06:55:29;9.40;;;2.60;;
73296;SDS011;61524;50.938;11.396;2023-05-31T06:57:55;6.45;;;2.78;;
73296;SDS011;61524;50.938;11.396;2023-05-31T07:00:21;5.78;;;2.63;;
73296;SDS011;61524;50.938;11.396;2023-05-31T07:02:47;7.30;;;2.58;;
73296;SDS011;61524;50.938;11.396;2023-05-31T07:05:12;6.07;;;2.30;;
73296;SDS011;61524;50.938;11.396;2023-05-31T07:07:38;7.07;;;2.85;;
73296;SDS011;61524;50.938;11.396;2023-05-31T07:10:03;5.38;;;2.25;;
73296;SDS011;61524;50.938;11.396;2023-05-31T07:12:30;6.40;;;2.80;;
73296;SDS011;61524;50.938;11.396;2023-05-31T07:14:55;4.43;;;2.20;;
73296;SDS011;61524;50.938;11.396;2023-05-31T07:17:21;7.45;;;2.22;;
73296;SDS011;61524;50.938;11.396;2023-05-31T07:19:47;7.80;;;2.42;;
73296;SDS011;61524;50.938;11.396;2023-05-31T07:22:13;4.15;;;2.17;;
73296;SDS011;61524;50.938;11.396;2023-05-31T07:24:40;4.35;;;2.20;;
73296;SDS011;61524;50.938;11.396;2023-05-31T07:27:07;6.25;;;2.20;;
73296;SDS011;61524;50.938;11.396;2023-05-31T07:29:33;5.22;;;2.92;;
73296;SDS011;61524;50.938;11.396;2023-05-31T07:31:59;5.72;;;2.20;;
73296;SDS011;61524;50.938;11.396;2023-05-31T07:34:25;6.95;;;2.63;;
73296;SDS011;61524;50.938;11.396;2023-05-31T07:36:50;6.53;;;2.38;;
73296;SDS011;61524;50.938;11.396;2023-05-31T07:39:16;5.95;;;2.60;;
73296;SDS011;61524;50.938;11.396;2023-05-31T07:41:41;4.28;;;2.13;;
73296;SDS011;61524;50.938;11.396;2023-05-31T07:44:08;5.72;;;2.30;;
73296;SDS011;61524;50.938;11.396;2023-05-31T07:46:34;7.70;;;2.72;;
73296;SDS011;61524;50.938;11.396;2023-05-31T07:49:01;6.07;;;2.30;;
73296;SDS011;61524;50.938;11.396;2023-05-31T07:51:28;7.05;;;2.50;;
73296;SDS011;61524;50.938;11.396;2023-05-31T07:53:54;5.05;;;2.35;;
73296;SDS011;61524;50.938;11.396;2023-05-31T07:56:19;7.57;;;2.25;;
73296;SDS011;61524;50.938;11.396;2023-05-31T07:58:45;5.78;;;2.30;;
73296;SDS011;61524;50.938;11.396;2023-05-31T08:01:11;7.07;;;2.60;;
73296;SDS011;61524;50.938;11.396;2023-05-31T08:03:37;6.72;;;2.03;;
73296;SDS011;61524;50.938;11.396;2023-05-31T08:06:03;7.00;;;2.33;;
73296;SDS011;61524;50.938;11.396;2023-05-31T08:08:30;9.65;;;2.63;;
73296;SDS011;61524;50.938;11.396;2023-05-31T08:10:57;5.82;;;2.20;;
73296;SDS011;61524;50.938;11.396;2023-05-31T08:13:23;8.38;;;2.55;;
73296;SDS011;61524;50.938;11.396;2023-05-31T08:15:49;6.05;;;2.67;;
73296;SDS011;61524;50.938;11.396;2023-05-31T08:18:15;5.68;;;2.40;;
73296;SDS011;61524;50.938;11.396;2023-05-31T08:20:41;5.43;;;2.55;;
73296;SDS011;61524;50.938;11.396;2023-05-31T08:23:06;5.82;;;2.00;;
73296;SDS011;61524;50.938;11.396;2023-05-31T08:25:32;5.97;;;2.28;;
73296;SDS011;61524;50.938;11.396;2023-05-31T08:27:57;6.03;;;2.35;;
73296;SDS011;61524;50.938;11.396;2023-05-31T08:30:23;9.15;;;2.30;;
73296;SDS011;61524;50.938;11.396;2023-05-31T08:32:48;6.97;;;2.38;;
73296;SDS011;61524;50.938;11.396;2023-05-31T08:35:14;7.78;;;2.80;;
73296;SDS011;61524;50.938;11.396;2023-05-31T08:37:40;5.88;;;2.28;;
73296;SDS011;61524;50.938;11.396;2023-05-31T08:40:05;5.05;;;2.10;;
73296;SDS011;61524;50.938;11.396;2023-05-31T08:42:48;5.65;;;2.13;;
73296;SDS011;61524;50.938;11.396;2023-05-31T08:45:17;6.85;;;1.90;;
73296;SDS011;61524;50.938;11.396;2023-05-31T08:47:43;5.63;;;2.10;;
73296;SDS011;61524;50.938;11.396;2023-05-31T08:50:16;6.10;;;2.05;;
73296;SDS011;61524;50.938;11.396;2023-05-31T08:52:42;12.68;;;3.05;;
73296;SDS011;61524;50.938;11.396;2023-05-31T08:55:10;4.70;;;1.85;;
73296;SDS011;61524;50.938;11.396;2023-05-31T08:57:36;6.50;;;2.35;;
73296;SDS011;61524;50.938;11.396;2023-05-31T09:00:03;5.50;;;2.00;;
73296;SDS011;61524;50.938;11.396;2023-05-31T09:02:36;4.57;;;2.05;;
73296;SDS011;61524;50.938;11.396;2023-05-31T09:05:02;6.30;;;2.40;;
73296;SDS011;61524;50.938;11.396;2023-05-31T09:07:29;4.40;;;1.70;;
73296;SDS011;61524;50.938;11.396;2023-05-31T09:09:54;5.80;;;2.15;;
73296;SDS011;61524;50.938;11.396;2023-05-31T09:12:20;4.45;;;2.03;;
73296;SDS011;61524;50.938;11.396;2023-05-31T09:14:46;4.93;;;1.80;;
73296;SDS011;61524;50.938;11.396;2023-05-31T09:17:12;6.35;;;2.00;;
73296;SDS011;61524;50.938;11.396;2023-05-31T09:19:41;5.03;;;1.83;;
73296;SDS011;61524;50.938;11.396;2023-05-31T09:22:15;6.85;;;2.17;;
73296;SDS011;61524;50.938;11.396;2023-05-31T09:24:48;4.43;;;1.60;;
73296;SDS011;61524;50.938;11.396;2023-05-31T09:27:15;8.73;;;2.03;;
73296;SDS011;61524;50.938;11.396;2023-05-31T09:29:42;4.82;;;1.85;;
73296;SDS011;61524;50.938;11.396;2023-05-31T09:32:08;6.45;;;1.73;;
73296;SDS011;61524;50.938;11.396;2023-05-31T09:34:35;3.70;;;1.65;;
73296;SDS011;61524;50.938;11.396;2023-05-31T09:37:00;5.88;;;2.08;;
73296;SDS011;61524;50.938;11.396;2023-05-31T09:39:26;5.72;;;2.05;;
73296;SDS011;61524;50.938;11.396;2023-05-31T09:41:52;4.88;;;1.77;;
73296;SDS011;61524;50.938;11.396;2023-05-31T09:44:20;4.45;;;1.65;;
73296;SDS011;61524;50.938;11.396;2023-05-31T09:46:50;7.07;;;1.80;;
73296;SDS011;61524;50.938;11.396;2023-05-31T09:49:16;4.25;;;1.67;;
73296;SDS011;61524;50.938;11.396;2023-05-31T09:51:53;4.68;;;1.70;;
73296;SDS011;61524;50.938;11.396;2023-05-31T09:54:18;3.92;;;1.95;;
73296;SDS011;61524;50.938;11.396;2023-05-31T09:56:48;5.20;;;1.60;;
73296;SDS011;61524;50.938;11.396;2023-05-31T09:59:14;5.95;;;1.50;;
73296;SDS011;61524;50.938;11.396;2023-05-31T10:01:40;6.82;;;1.60;;
73296;SDS011;61524;50.938;11.396;2023-05-31T10:04:05;5.45;;;1.30;;
73296;SDS011;61524;50.938;11.396;2023-05-31T10:06:31;4.43;;;1.40;;
73296;SDS011;61524;50.938;11.396;2023-05-31T10:09:01;5.68;;;1.50;;
73296;SDS011;61524;50.938;11.396;2023-05-31T10:11:31;5.95;;;1.73;;
73296;SDS011;61524;50.938;11.396;2023-05-31T10:14:01;5.30;;;1.50;;
73296;SDS011;61524;50.938;11.396;2023-05-31T10:16:28;4.43;;;1.60;;
73296;SDS011;61524;50.938;11.396;2023-05-31T10:19:02;5.57;;;1.80;;
73296;SDS011;61524;50.938;11.396;2023-05-31T10:21:31;4.78;;;1.60;;
73296;SDS011;61524;50.938;11.396;2023-05-31T10:24:04;5.22;;;1.58;;
73296;SDS011;61524;50.938;11.396;2023-05-31T10:26:55;4.47;;;1.73;;
73296;SDS011;61524;50.938;11.396;2023-05-31T10:29:27;5.40;;;1.60;;
73296;SDS011;61524;50.938;11.396;2023-05-31T10:31:55;4.63;;;1.35;;
73296;SDS011;61524;50.938;11.396;2023-05-31T10:34:24;4.47;;;1.30;;
73296;SDS011;61524;50.938;11.396;2023-05-31T10:36:51;3.58;;;1.55;;
73296;SDS011;61524;50.938;11.396;2023-05-31T10:42:48;3.47;;;1.33;;
73296;SDS011;61524;50.938;11.396;2023-05-31T10:45:18;3.17;;;1.30;;
73296;SDS011;61524;50.938;11.396;2023-05-31T10:50:55;5.45;;;1.58;;
73296;SDS011;61524;50.938;11.396;2023-05-31T10:53:28;4.45;;;1.73;;
73296;SDS011;61524;50.938;11.396;2023-05-31T10:56:00;4.80;;;1.52;;
73296;SDS011;61524;50.938;11.396;2023-05-31T11:00:55;4.93;;;1.58;;
73296;SDS011;61524;50.938;11.396;2023-05-31T11:03:25;4.53;;;1.35;;
73296;SDS011;61524;50.938;11.396;2023-05-31T11:05:58;3.03;;;1.30;;
73296;SDS011;61524;50.938;11.396;2023-05-31T11:08:26;7.65;;;1.65;;
73296;SDS011;61524;50.938;11.396;2023-05-31T11:10:52;6.00;;;2.03;;
73296;SDS011;61524;50.938;11.396;2023-05-31T11:16:26;4.85;;;1.58;;
73296;SDS011;61524;50.938;11.396;2023-05-31T11:19:05;7.00;;;1.70;;
73296;SDS011;61524;50.938;11.396;2023-05-31T11:21:47;4.68;;;1.60;;
73296;SDS011;61524;50.938;11.396;2023-05-31T11:27:13;3.10;;;1.02;;
73296;SDS011;61524;50.938;11.396;2023-05-31T11:34:50;4.82;;;1.50;;
73296;SDS011;61524;50.938;11.396;2023-05-31T11:37:23;5.63;;;1.35;;
73296;SDS011;61524;50.938;11.396;2023-05-31T11:39:53;5.25;;;1.63;;
73296;SDS011;61524;50.938;11.396;2023-05-31T11:42:19;4.43;;;1.38;;
73296;SDS011;61524;50.938;11.396;2023-05-31T11:44:46;5.45;;;1.55;;
73296;SDS011;61524;50.938;11.396;2023-05-31T11:47:18;4.30;;;1.55;;
73296;SDS011;61524;50.938;11.396;2023-05-31T11:49:44;3.80;;;1.33;;
73296;SDS011;61524;50.938;11.396;2023-05-31T11:52:14;3.63;;;1.42;;
73296;SDS011;61524;50.938;11.396;2023-05-31T11:54:44;3.28;;;1.33;;
73296;SDS011;61524;50.938;11.396;2023-05-31T11:57:11;4.30;;;1.60;;
73296;SDS011;61524;50.938;11.396;2023-05-31T11:59:38;4.10;;;1.60;;
73296;SDS011;61524;50.938;11.396;2023-05-31T12:04:31;6.53;;;1.60;;
73296;SDS011;61524;50.938;11.396;2023-05-31T12:07:08;4.50;;;1.50;;
73296;SDS011;61524;50.938;11.396;2023-05-31T12:09:35;4.07;;;1.35;;
73296;SDS011;61524;50.938;11.396;2023-05-31T12:12:01;4.90;;;1.63;;
73296;SDS011;61524;50.938;11.396;2023-05-31T12:14:30;4.18;;;1.38;;
73296;SDS011;61524;50.938;11.396;2023-05-31T12:16:58;4.22;;;1.60;;
73296;SDS011;61524;50.938;11.396;2023-05-31T12:19:27;8.65;;;1.60;;
73296;SDS011;61524;50.938;11.396;2023-05-31T12:21:52;4.60;;;1.45;;
73296;SDS011;61524;50.938;11.396;2023-05-31T12:24:18;4.88;;;1.48;;
73296;SDS011;61524;50.938;11.396;2023-05-31T12:26:44;4.82;;;1.63;;
73296;SDS011;61524;50.938;11.396;2023-05-31T12:29:13;4.80;;;1.70;;
73296;SDS011;61524;50.938;11.396;2023-05-31T12:31:39;5.78;;;1.70;;
73296;SDS011;61524;50.938;11.396;2023-05-31T12:36:42;7.15;;;1.83;;
73296;SDS011;61524;50.938;11.396;2023-05-31T12:39:17;5.03;;;1.38;;
73296;SDS011;61524;50.938;11.396;2023-05-31T12:44:13;11.55;;;3.80;;
73296;SDS011;61524;50.938;11.396;2023-05-31T12:46:44;5.10;;;1.67;;
73296;SDS011;61524;50.938;11.396;2023-05-31T12:49:17;7.15;;;1.98;;
73296;SDS011;61524;50.938;11.396;2023-05-31T12:52:08;5.03;;;1.52;;
73296;SDS011;61524;50.938;11.396;2023-05-31T12:54:37;4.78;;;1.75;;
73296;SDS011;61524;50.938;11.396;2023-05-31T12:57:04;5.80;;;1.67;;
73296;SDS011;61524;50.938;11.396;2023-05-31T12:59:34;5.30;;;1.60;;
73296;SDS011;61524;50.938;11.396;2023-05-31T13:04:26;4.28;;;1.63;;
73296;SDS011;61524;50.938;11.396;2023-05-31T13:06:52;3.40;;;1.42;;
73296;SDS011;61524;50.938;11.396;2023-05-31T13:09:19;6.43;;;1.50;;
73296;SDS011;61524;50.938;11.396;2023-05-31T13:11:45;4.32;;;1.50;;
73296;SDS011;61524;50.938;11.396;2023-05-31T13:14:14;5.10;;;1.60;;
73296;SDS011;61524;50.938;11.396;2023-05-31T13:16:41;4.57;;;1.50;;
73296;SDS011;61524;50.938;11.396;2023-05-31T13:19:07;5.05;;;1.60;;
73296;SDS011;61524;50.938;11.396;2023-05-31T13:21:33;4.50;;;1.65;;
73296;SDS011;61524;50.938;11.396;2023-05-31T13:24:02;4.20;;;1.50;;
73296;SDS011;61524;50.938;11.396;2023-05-31T13:26:28;6.68;;;1.60;;
73296;SDS011;61524;50.938;11.396;2023-05-31T13:28:54;5.53;;;1.92;;
73296;SDS011;61524;50.938;11.396;2023-05-31T13:31:22;7.05;;;2.00;;
73296;SDS011;61524;50.938;11.396;2023-05-31T13:33:47;5.43;;;1.70;;
73296;SDS011;61524;50.938;11.396;2023-05-31T13:36:14;4.88;;;1.48;;
73296;SDS011;61524;50.938;11.396;2023-05-31T13:41:06;3.38;;;1.40;;
73296;SDS011;61524;50.938;11.396;2023-05-31T13:43:31;3.95;;;1.23;;
73296;SDS011;61524;50.938;11.396;2023-05-31T13:45:59;4.03;;;1.90;;
73296;SDS011;61524;50.938;11.396;2023-05-31T13:48:25;4.15;;;1.67;;
73296;SDS011;61524;50.938;11.396;2023-05-31T13:50:51;4.88;;;1.50;;
73296;SDS011;61524;50.938;11.396;2023-05-31T13:53:17;4.15;;;1.55;;
73296;SDS011;61524;50.938;11.396;2023-05-31T13:55:43;4.50;;;1.50;;
73296;SDS011;61524;50.938;11.396;2023-05-31T13:58:11;3.50;;;1.70;;
73296;SDS011;61524;50.938;11.396;2023-05-31T14:00:37;6.45;;;2.00;;
73296;SDS011;61524;50.938;11.396;2023-05-31T14:03:02;6.25;;;1.92;;
73296;SDS011;61524;50.938;11.396;2023-05-31T14:05:28;4.78;;;1.85;;
73296;SDS011;61524;50.938;11.396;2023-05-31T14:07:55;4.05;;;1.63;;
73296;SDS011;61524;50.938;11.396;2023-05-31T14:10:21;6.15;;;1.63;;
73296;SDS011;61524;50.938;11.396;2023-05-31T14:12:47;5.20;;;1.88;;
73296;SDS011;61524;50.938;11.396;2023-05-31T14:15:13;5.95;;;2.53;;
73296;SDS011;61524;50.938;11.396;2023-05-31T14:17:39;9.95;;;2.45;;
73296;SDS011;61524;50.938;11.396;2023-05-31T14:20:05;6.10;;;1.80;;
73296;SDS011;61524;50.938;11.396;2023-05-31T14:22:31;5.32;;;1.80;;
73296;SDS011;61524;50.938;11.396;2023-05-31T14:24:58;5.53;;;1.80;;
73296;SDS011;61524;50.938;11.396;2023-05-31T14:27:24;5.88;;;2.00;;
73296;SDS011;61524;50.938;11.396;2023-05-31T14:29:49;5.13;;;1.73;;
73296;SDS011;61524;50.938;11.396;2023-05-31T14:32:15;8.25;;;1.70;;
73296;SDS011;61524;50.938;11.396;2023-05-31T14:34:41;4.85;;;2.05;;
73296;SDS011;61524;50.938;11.396;2023-05-31T14:37:09;6.30;;;1.67;;
73296;SDS011;61524;50.938;11.396;2023-05-31T14:39:34;5.93;;;1.70;;
73296;SDS011;61524;50.938;11.396;2023-05-31T14:41:59;5.25;;;1.80;;
73296;SDS011;61524;50.938;11.396;2023-05-31T14:44:25;5.40;;;1.70;;
73296;SDS011;61524;50.938;11.396;2023-05-31T14:46:50;7.57;;;1.67;;
73296;SDS011;61524;50.938;11.396;2023-05-31T14:49:20;6.32;;;1.90;;
73296;SDS011;61524;50.938;11.396;2023-05-31T14:51:45;3.88;;;1.88;;
73296;SDS011;61524;50.938;11.396;2023-05-31T14:54:12;7.07;;;2.45;;
73296;SDS011;61524;50.938;11.396;2023-05-31T14:56:37;4.38;;;1.67;;
73296;SDS011;61524;50.938;11.396;2023-05-31T14:59:03;7.30;;;1.85;;
73296;SDS011;61524;50.938;11.396;2023-05-31T15:19:27;5.60;;;2.40;;
73296;SDS011;61524;50.938;11.396;2023-05-31T15:21:53;3.85;;;1.40;;
73296;SDS011;61524;50.938;11.396;2023-05-31T15:24:19;6.47;;;2.30;;
73296;SDS011;61524;50.938;11.396;2023-05-31T15:26:44;5.57;;;2.00;;
73296;SDS011;61524;50.938;11.396;2023-05-31T15:29:09;5.82;;;1.77;;
73296;SDS011;61524;50.938;11.396;2023-05-31T15:31:36;5.82;;;1.88;;
73296;SDS011;61524;50.938;11.396;2023-05-31T15:34:01;4.85;;;2.20;;
73296;SDS011;61524;50.938;11.396;2023-05-31T15:36:28;5.93;;;2.22;;
73296;SDS011;61524;50.938;11.396;2023-05-31T15:38:56;4.93;;;1.50;;